sensor_id;sensor_type;location;lat;lon;timestamp;P1;durP1;ratioP1;P2;durP2;ratioP2
14300;SDS011;7234;59.306;18.024;2022-12-18T15:24:24;4.30;;;2.90;;
14300;SDS011;7234;59.306;18.024;2022-12-18T15:26:53;7.70;;;3.50;;
14300;SDS011;7234;59.306;18.024;2022-12-18T15:29:21;6.03;;;2.73;;
14300;SDS011;7234;59.306;18.024;2022-12-18T15:32:00;9.80;;;2.53;;
14300;SDS011;7234;59.306;18.024;2022-12-18T15:34:28;7.10;;;2.67;;
14300;SDS011;7234;59.306;18.024;2022-12-18T15:36:56;5.10;;;2.30;;
14300;SDS011;7234;59.306;18.024;2022-12-18T15:39:25;6.07;;;2.77;;
14300;SDS011;7234;59.306;18.024;2022-12-18T15:41:53;7.67;;;2.63;;
14300;SDS011;7234;59.306;18.024;2022-12-18T15:44:37;8.47;;;2.80;;
14300;SDS011;7234;59.306;18.024;2022-12-18T15:47:08;6.37;;;2.40;;
14300;SDS011;7234;59.306;18.024;2022-12-18T15:49:37;4.93;;;3.13;;
14300;SDS011;7234;59.306;18.024;2022-12-18T15:52:04;9.83;;;2.83;;
14300;SDS011;7234;59.306;18.024;2022-12-18T15:54:33;5.43;;;2.33;;
14300;SDS011;7234;59.306;18.024;2022-12-18T15:57:18;4.30;;;2.57;;
14300;SDS011;7234;59.306;18.024;2022-12-18T15:59:52;5.63;;;2.30;;
14300;SDS011;7234;59.306;18.024;2022-12-18T16:02:20;5.10;;;2.33;;
14300;SDS011;7234;59.306;18.024;2022-12-18T16:04:48;5.40;;;2.50;;
14300;SDS011;7234;59.306;18.024;2022-12-18T16:07:16;10.43;;;2.33;;
14300;SDS011;7234;59.306;18.024;2022-12-18T16:09:45;5.43;;;2.20;;
14300;SDS011;7234;59.306;18.024;2022-12-18T16:12:14;4.50;;;2.00;;
14300;SDS011;7234;59.306;18.024;2022-12-18T16:14:42;4.17;;;2.03;;
14300;SDS011;7234;59.306;18.024;2022-12-18T16:17:10;3.70;;;1.50;;
14300;SDS011;7234;59.306;18.024;2022-12-18T16:19:37;2.33;;;1.30;;
14300;SDS011;7234;59.306;18.024;2022-12-18T16:22:05;5.60;;;1.90;;
14300;SDS011;7234;59.306;18.024;2022-12-18T16:24:33;4.87;;;1.80;;
14300;SDS011;7234;59.306;18.024;2022-12-18T16:27:02;5.67;;;2.20;;
14300;SDS011;7234;59.306;18.024;2022-12-18T16:29:29;6.63;;;2.03;;
14300;SDS011;7234;59.306;18.024;2022-12-18T16:31:57;2.57;;;1.60;;
14300;SDS011;7234;59.306;18.024;2022-12-18T16:34:26;3.23;;;1.60;;
14300;SDS011;7234;59.306;18.024;2022-12-18T16:36:54;2.77;;;1.60;;
14300;SDS011;7234;59.306;18.024;2022-12-18T16:39:21;2.57;;;1.50;;
14300;SDS011;7234;59.306;18.024;2022-12-18T16:41:48;3.87;;;1.50;;
14300;SDS011;7234;59.306;18.024;2022-12-18T16:44:17;4.63;;;1.50;;
14300;SDS011;7234;59.306;18.024;2022-12-18T16:46:45;3.93;;;1.60;;
14300;SDS011;7234;59.306;18.024;2022-12-18T16:49:13;4.87;;;2.20;;
14300;SDS011;7234;59.306;18.024;2022-12-18T16:51:42;3.03;;;1.77;;
14300;SDS011;7234;59.306;18.024;2022-12-18T16:54:12;4.83;;;1.87;;
14300;SDS011;7234;59.306;18.024;2022-12-18T16:56:45;5.43;;;1.73;;
14300;SDS011;7234;59.306;18.024;2022-12-18T16:59:13;4.90;;;1.63;;
14300;SDS011;7234;59.306;18.024;2022-12-18T17:01:46;6.63;;;1.40;;
14300;SDS011;7234;59.306;18.024;2022-12-18T17:04:13;4.77;;;1.90;;
14300;SDS011;7234;59.306;18.024;2022-12-18T17:06:44;3.37;;;1.90;;
14300;SDS011;7234;59.306;18.024;2022-12-18T17:09:16;2.93;;;1.53;;
14300;SDS011;7234;59.306;18.024;2022-12-18T17:11:44;4.57;;;1.60;;
14300;SDS011;7234;59.306;18.024;2022-12-18T17:14:12;9.43;;;1.43;;
14300;SDS011;7234;59.306;18.024;2022-12-18T17:16:40;6.93;;;1.40;;
14300;SDS011;7234;59.306;18.024;2022-12-18T17:19:12;3.77;;;1.60;;
14300;SDS011;7234;59.306;18.024;2022-12-18T17:21:41;3.67;;;1.80;;
14300;SDS011;7234;59.306;18.024;2022-12-18T17:24:08;5.20;;;1.83;;
14300;SDS011;7234;59.306;18.024;2022-12-18T17:26:36;3.73;;;1.80;;
14300;SDS011;7234;59.306;18.024;2022-12-18T17:29:03;5.73;;;1.50;;
14300;SDS011;7234;59.306;18.024;2022-12-18T17:31:31;3.47;;;1.67;;
14300;SDS011;7234;59.306;18.024;2022-12-18T17:34:00;6.93;;;2.00;;
14300;SDS011;7234;59.306;18.024;2022-12-18T17:36:29;7.17;;;1.53;;
14300;SDS011;7234;59.306;18.024;2022-12-18T17:38:57;5.37;;;1.60;;
14300;SDS011;7234;59.306;18.024;2022-12-18T17:41:25;5.10;;;1.57;;
14300;SDS011;7234;59.306;18.024;2022-12-18T17:43:53;3.40;;;1.80;;
14300;SDS011;7234;59.306;18.024;2022-12-18T17:46:21;5.30;;;1.50;;
14300;SDS011;7234;59.306;18.024;2022-12-18T17:48:49;5.53;;;1.50;;
14300;SDS011;7234;59.306;18.024;2022-12-18T17:51:17;7.40;;;1.73;;
14300;SDS011;7234;59.306;18.024;2022-12-18T17:53:46;7.28;;;2.05;;
14300;SDS011;7234;59.306;18.024;2022-12-18T17:56:14;4.23;;;1.70;;
14300;SDS011;7234;59.306;18.024;2022-12-18T17:58:44;2.93;;;1.77;;
14300;SDS011;7234;59.306;18.024;2022-12-18T18:01:12;3.27;;;1.43;;
14300;SDS011;7234;59.306;18.024;2022-12-18T18:03:40;4.17;;;1.50;;
14300;SDS011;7234;59.306;18.024;2022-12-18T18:06:10;5.20;;;1.90;;
14300;SDS011;7234;59.306;18.024;2022-12-18T18:08:37;3.30;;;1.67;;
14300;SDS011;7234;59.306;18.024;2022-12-18T18:11:10;4.07;;;1.87;;
14300;SDS011;7234;59.306;18.024;2022-12-18T18:13:55;5.57;;;1.73;;
14300;SDS011;7234;59.306;18.024;2022-12-18T18:16:30;4.65;;;2.17;;
14300;SDS011;7234;59.306;18.024;2022-12-18T18:18:58;4.10;;;1.53;;
14300;SDS011;7234;59.306;18.024;2022-12-18T18:21:26;2.53;;;1.40;;
14300;SDS011;7234;59.306;18.024;2022-12-18T18:23:58;4.20;;;2.07;;
14300;SDS011;7234;59.306;18.024;2022-12-18T18:26:27;3.67;;;1.53;;
14300;SDS011;7234;59.306;18.024;2022-12-18T18:28:57;5.17;;;1.67;;
14300;SDS011;7234;59.306;18.024;2022-12-18T18:31:25;4.87;;;1.70;;
14300;SDS011;7234;59.306;18.024;2022-12-18T18:33:53;4.50;;;2.07;;
14300;SDS011;7234;59.306;18.024;2022-12-18T18:36:21;3.57;;;1.40;;
14300;SDS011;7234;59.306;18.024;2022-12-18T18:38:49;5.23;;;1.67;;
14300;SDS011;7234;59.306;18.024;2022-12-18T18:41:17;6.07;;;2.00;;
14300;SDS011;7234;59.306;18.024;2022-12-18T18:43:55;5.53;;;1.85;;
14300;SDS011;7234;59.306;18.024;2022-12-18T18:46:23;4.15;;;1.65;;
14300;SDS011;7234;59.306;18.024;2022-12-18T18:48:53;5.32;;;2.00;;
14300;SDS011;7234;59.306;18.024;2022-12-18T18:51:21;5.07;;;1.80;;
14300;SDS011;7234;59.306;18.024;2022-12-18T18:53:49;3.70;;;1.42;;
14300;SDS011;7234;59.306;18.024;2022-12-18T18:56:18;6.78;;;1.92;;
14300;SDS011;7234;59.306;18.024;2022-12-18T18:58:46;5.78;;;1.98;;
14300;SDS011;7234;59.306;18.024;2022-12-18T19:01:16;4.88;;;1.52;;
14300;SDS011;7234;59.306;18.024;2022-12-18T19:03:47;4.47;;;1.85;;
14300;SDS011;7234;59.306;18.024;2022-12-18T19:06:16;3.90;;;1.90;;
14300;SDS011;7234;59.306;18.024;2022-12-18T19:08:46;5.70;;;1.98;;
14300;SDS011;7234;59.306;18.024;2022-12-18T19:11:14;5.03;;;1.73;;
14300;SDS011;7234;59.306;18.024;2022-12-18T19:14:01;5.30;;;1.83;;
14300;SDS011;7234;59.306;18.024;2022-12-18T19:16:31;5.03;;;1.98;;
14300;SDS011;7234;59.306;18.024;2022-12-18T19:19:03;4.00;;;1.77;;
14300;SDS011;7234;59.306;18.024;2022-12-18T19:21:31;4.75;;;1.60;;
14300;SDS011;7234;59.306;18.024;2022-12-18T19:24:02;5.03;;;1.45;;
14300;SDS011;7234;59.306;18.024;2022-12-18T19:26:34;7.88;;;2.10;;
14300;SDS011;7234;59.306;18.024;2022-12-18T19:29:12;4.95;;;1.88;;
14300;SDS011;7234;59.306;18.024;2022-12-18T19:31:44;5.65;;;1.92;;
14300;SDS011;7234;59.306;18.024;2022-12-18T19:34:12;4.13;;;1.70;;
14300;SDS011;7234;59.306;18.024;2022-12-18T19:36:39;3.65;;;1.67;;
14300;SDS011;7234;59.306;18.024;2022-12-18T19:39:07;3.15;;;1.45;;
14300;SDS011;7234;59.306;18.024;2022-12-18T19:41:36;3.45;;;1.52;;
14300;SDS011;7234;59.306;18.024;2022-12-18T19:44:04;3.07;;;1.50;;
14300;SDS011;7234;59.306;18.024;2022-12-18T19:46:34;3.55;;;1.48;;
14300;SDS011;7234;59.306;18.024;2022-12-18T19:49:03;7.30;;;1.73;;
14300;SDS011;7234;59.306;18.024;2022-12-18T19:51:36;9.00;;;2.63;;
14300;SDS011;7234;59.306;18.024;2022-12-18T19:54:04;5.53;;;1.67;;
14300;SDS011;7234;59.306;18.024;2022-12-18T19:56:34;3.63;;;1.60;;
14300;SDS011;7234;59.306;18.024;2022-12-18T19:59:02;5.03;;;1.93;;
14300;SDS011;7234;59.306;18.024;2022-12-18T20:01:30;5.73;;;1.60;;
14300;SDS011;7234;59.306;18.024;2022-12-18T20:03:57;8.35;;;1.80;;
14300;SDS011;7234;59.306;18.024;2022-12-18T20:06:28;4.27;;;1.60;;
14300;SDS011;7234;59.306;18.024;2022-12-18T20:08:57;3.00;;;1.40;;
14300;SDS011;7234;59.306;18.024;2022-12-18T20:11:26;2.85;;;1.30;;
14300;SDS011;7234;59.306;18.024;2022-12-18T20:13:56;5.25;;;1.70;;
14300;SDS011;7234;59.306;18.024;2022-12-18T20:16:24;5.45;;;2.08;;
14300;SDS011;7234;59.306;18.024;2022-12-18T20:18:51;2.38;;;1.40;;
14300;SDS011;7234;59.306;18.024;2022-12-18T20:21:20;2.90;;;1.42;;
14300;SDS011;7234;59.306;18.024;2022-12-18T20:23:54;4.78;;;1.60;;
14300;SDS011;7234;59.306;18.024;2022-12-18T20:26:24;4.93;;;1.52;;
14300;SDS011;7234;59.306;18.024;2022-12-18T20:28:52;3.15;;;1.35;;
14300;SDS011;7234;59.306;18.024;2022-12-18T20:31:20;6.28;;;1.95;;
14300;SDS011;7234;59.306;18.024;2022-12-18T20:33:47;4.35;;;1.90;;
14300;SDS011;7234;59.306;18.024;2022-12-18T20:36:19;5.35;;;2.05;;
14300;SDS011;7234;59.306;18.024;2022-12-18T20:38:46;2.95;;;1.70;;
14300;SDS011;7234;59.306;18.024;2022-12-18T20:41:17;5.85;;;1.50;;
14300;SDS011;7234;59.306;18.024;2022-12-18T20:43:53;2.55;;;1.30;;
14300;SDS011;7234;59.306;18.024;2022-12-18T20:46:23;2.33;;;1.30;;
14300;SDS011;7234;59.306;18.024;2022-12-18T20:48:51;2.45;;;1.20;;
14300;SDS011;7234;59.306;18.024;2022-12-18T20:51:19;3.75;;;1.58;;
14300;SDS011;7234;59.306;18.024;2022-12-18T20:53:48;2.95;;;1.05;;
14300;SDS011;7234;59.306;18.024;2022-12-18T20:56:20;3.78;;;1.50;;
14300;SDS011;7234;59.306;18.024;2022-12-18T20:58:47;3.92;;;1.60;;
14300;SDS011;7234;59.306;18.024;2022-12-18T21:01:16;2.63;;;1.42;;
14300;SDS011;7234;59.306;18.024;2022-12-18T21:03:43;2.88;;;1.40;;
14300;SDS011;7234;59.306;18.024;2022-12-18T21:06:14;3.75;;;1.48;;
14300;SDS011;7234;59.306;18.024;2022-12-18T21:08:42;2.95;;;1.23;;
14300;SDS011;7234;59.306;18.024;2022-12-18T21:11:13;4.60;;;1.42;;
14300;SDS011;7234;59.306;18.024;2022-12-18T21:13:56;2.03;;;1.20;;
14300;SDS011;7234;59.306;18.024;2022-12-18T21:16:23;2.13;;;1.23;;
14300;SDS011;7234;59.306;18.024;2022-12-18T21:18:51;5.13;;;1.60;;
14300;SDS011;7234;59.306;18.024;2022-12-18T21:21:18;3.55;;;1.48;;
14300;SDS011;7234;59.306;18.024;2022-12-18T21:23:45;2.08;;;1.38;;
14300;SDS011;7234;59.306;18.024;2022-12-18T21:26:13;2.13;;;1.38;;
14300;SDS011;7234;59.306;18.024;2022-12-18T21:28:44;2.85;;;1.15;;
14300;SDS011;7234;59.306;18.024;2022-12-18T21:31:13;2.85;;;1.27;;
14300;SDS011;7234;59.306;18.024;2022-12-18T21:33:44;3.60;;;1.30;;
14300;SDS011;7234;59.306;18.024;2022-12-18T21:36:11;3.65;;;1.25;;
14300;SDS011;7234;59.306;18.024;2022-12-18T21:38:39;3.25;;;1.25;;
14300;SDS011;7234;59.306;18.024;2022-12-18T21:41:09;3.60;;;1.38;;
14300;SDS011;7234;59.306;18.024;2022-12-18T21:43:57;4.47;;;1.70;;
14300;SDS011;7234;59.306;18.024;2022-12-18T21:46:31;2.05;;;1.40;;
14300;SDS011;7234;59.306;18.024;2022-12-18T21:48:59;1.98;;;1.23;;
14300;SDS011;7234;59.306;18.024;2022-12-18T21:51:26;3.67;;;1.60;;
14300;SDS011;7234;59.306;18.024;2022-12-18T21:53:53;5.43;;;1.67;;
14300;SDS011;7234;59.306;18.024;2022-12-18T21:56:21;4.63;;;1.80;;
14300;SDS011;7234;59.306;18.024;2022-12-18T21:58:49;5.80;;;1.65;;
14300;SDS011;7234;59.306;18.024;2022-12-18T22:01:16;3.03;;;1.45;;
14300;SDS011;7234;59.306;18.024;2022-12-18T22:03:45;3.40;;;1.23;;
14300;SDS011;7234;59.306;18.024;2022-12-18T22:06:12;3.80;;;1.42;;
14300;SDS011;7234;59.306;18.024;2022-12-18T22:08:40;3.97;;;1.40;;
14300;SDS011;7234;59.306;18.024;2022-12-18T22:11:11;3.70;;;1.38;;
14300;SDS011;7234;59.306;18.024;2022-12-18T22:13:38;3.75;;;1.35;;
14300;SDS011;7234;59.306;18.024;2022-12-18T22:16:06;3.42;;;1.27;;
